createdAt,value
2024-02-02T00:01:04.137Z,77.40
2024-02-02T00:03:30.737Z,77.42
2024-02-02T00:05:57.473Z,77.56
2024-02-02T00:08:24.084Z,77.30
2024-02-02T00:10:50.552Z,77.00
2024-02-02T00:13:17.023Z,77.64
2024-02-02T00:15:43.635Z,77.90
2024-02-02T00:18:10.210Z,78.02
2024-02-02T00:20:36.841Z,78.15
2024-02-02T00:23:03.404Z,78.02
2024-02-02T00:25:30.019Z,77.88
2024-02-02T00:27:56.630Z,77.64
2024-02-02T00:30:23.213Z,77.54
2024-02-02T00:32:50.103Z,77.81
2024-02-02T00:35:16.793Z,77.95
2024-02-02T00:37:45.389Z,77.66
2024-02-02T00:40:11.972Z,77.80
2024-02-02T00:42:38.575Z,77.81
2024-02-02T00:45:05.779Z,77.89
2024-02-02T00:47:33.162Z,77.84
2024-02-02T00:50:01.096Z,77.87
2024-02-02T00:52:27.860Z,77.94
2024-02-02T00:54:55.472Z,77.98
2024-02-02T00:57:21.995Z,78.19
2024-02-02T00:59:49.540Z,77.83
2024-02-02T01:02:16.214Z,77.67
2024-02-02T01:04:43.531Z,77.24
2024-02-02T01:07:10.650Z,77.60
2024-02-02T01:09:40.463Z,78.00
2024-02-02T01:12:07.159Z,77.79
2024-02-02T01:14:33.780Z,77.53
2024-02-02T01:17:00.300Z,77.41
2024-02-02T01:19:26.813Z,77.49
2024-02-02T01:21:53.745Z,77.53
2024-02-02T01:24:20.281Z,78.33
2024-02-02T01:26:46.774Z,78.49
2024-02-02T01:29:13.318Z,78.03
2024-02-02T01:31:39.934Z,77.63
2024-02-02T01:34:06.551Z,77.48
2024-02-02T01:36:34.919Z,77.79
2024-02-02T01:39:01.828Z,77.88
2024-02-02T01:41:28.846Z,77.75
2024-02-02T01:43:55.532Z,78.26
2024-02-02T01:46:22.225Z,77.75
2024-02-02T01:48:49.327Z,77.72
2024-02-02T01:51:16.046Z,78.50
2024-02-02T01:53:43.921Z,78.21
2024-02-02T01:56:10.527Z,78.07
2024-02-02T01:58:37.345Z,78.00
2024-02-02T02:01:04.014Z,77.75
2024-02-02T02:03:30.765Z,77.84
2024-02-02T02:05:57.979Z,78.31
2024-02-02T02:08:24.693Z,79.10
2024-02-02T02:10:51.237Z,78.13
2024-02-02T02:13:18.274Z,78.67
2024-02-02T02:15:45.407Z,78.51
2024-02-02T02:18:12.127Z,78.24
2024-02-02T02:20:40.742Z,78.26
2024-02-02T02:23:09.848Z,78.15
2024-02-02T02:25:36.393Z,78.32
2024-02-02T02:28:02.972Z,78.77
2024-02-02T02:30:29.514Z,78.66
2024-02-02T02:32:56.093Z,78.38
2024-02-02T02:35:22.769Z,78.08
2024-02-02T02:37:49.236Z,77.91
2024-02-02T02:40:16.355Z,77.85
2024-02-02T02:42:42.904Z,77.90
2024-02-02T02:45:09.544Z,78.11
2024-02-02T02:47:51.691Z,78.24
2024-02-02T02:50:18.580Z,78.83
2024-02-02T02:52:45.091Z,78.60
2024-02-02T02:55:11.581Z,78.28
2024-02-02T02:57:38.162Z,78.60
2024-02-02T03:00:06.649Z,78.49
2024-02-02T03:02:33.167Z,78.57
2024-02-02T03:04:59.666Z,78.33
2024-02-02T03:07:26.135Z,78.16
2024-02-02T03:09:52.608Z,78.01
2024-02-02T03:12:19.206Z,77.86
2024-02-02T03:14:45.701Z,77.70
2024-02-02T03:17:12.262Z,77.58
2024-02-02T03:19:38.849Z,77.51
2024-02-02T03:22:05.616Z,77.80
2024-02-02T03:24:32.329Z,77.69
2024-02-02T03:26:58.949Z,77.73
2024-02-02T03:29:25.792Z,77.63
2024-02-02T03:31:52.330Z,77.77
2024-02-02T03:34:18.901Z,77.86
2024-02-02T03:36:45.557Z,78.07
2024-02-02T03:39:14.091Z,78.01
2024-02-02T03:41:40.698Z,78.03
2024-02-02T03:44:07.179Z,77.97
2024-02-02T03:46:33.660Z,77.70
2024-02-02T03:49:01.306Z,77.87
2024-02-02T03:51:28.023Z,77.91
2024-02-02T03:53:54.716Z,77.83
2024-02-02T03:56:21.266Z,77.68
2024-02-02T03:58:47.747Z,78.00
2024-02-02T04:01:14.230Z,77.94
2024-02-02T04:03:40.875Z,78.09
2024-02-02T04:06:07.563Z,78.21
2024-02-02T04:08:34.093Z,78.05
2024-02-02T04:11:00.684Z,77.94
2024-02-02T04:13:27.154Z,77.88
2024-02-02T04:15:53.767Z,77.66
2024-02-02T04:18:20.394Z,78.17
2024-02-02T04:20:47.046Z,78.43
2024-02-02T04:23:13.513Z,78.51
2024-02-02T04:25:39.983Z,78.42
2024-02-02T04:28:09.386Z,78.20
2024-02-02T04:30:36.751Z,78.06
2024-02-02T04:33:05.159Z,78.33
2024-02-02T04:35:36.433Z,78.53
2024-02-02T04:38:03.738Z,78.58
2024-02-02T04:40:30.562Z,78.52
2024-02-02T04:42:58.521Z,78.95
2024-02-02T04:45:25.407Z,78.90
2024-02-02T04:47:52.131Z,78.73
2024-02-02T04:50:18.760Z,78.64
2024-02-02T04:52:45.220Z,77.90
2024-02-02T04:55:13.027Z,78.13
2024-02-02T04:57:39.564Z,77.80
2024-02-02T05:00:07.167Z,77.61
2024-02-02T05:02:33.616Z,77.36
2024-02-02T05:05:00.139Z,77.25
2024-02-02T05:07:26.659Z,76.96
2024-02-02T05:09:53.213Z,76.72
2024-02-02T05:12:19.755Z,77.16
2024-02-02T05:14:46.334Z,77.47
2024-02-02T05:17:12.863Z,77.79
2024-02-02T05:19:39.532Z,77.65
2024-02-02T05:22:06.196Z,77.92
2024-02-02T05:24:43.314Z,77.84
2024-02-02T05:27:13.601Z,77.49
2024-02-02T05:29:40.249Z,77.36
2024-02-02T05:32:07.328Z,77.21
2024-02-02T05:34:33.939Z,77.28
2024-02-02T05:37:01.943Z,77.05
2024-02-02T05:39:29.101Z,76.99
2024-02-02T05:41:56.666Z,77.16
2024-02-02T05:44:23.211Z,77.70
2024-02-02T05:46:49.821Z,77.73
2024-02-02T05:49:16.698Z,78.25
2024-02-02T05:51:43.786Z,78.24
2024-02-02T05:54:10.648Z,78.46
2024-02-02T05:56:37.458Z,78.18
2024-02-02T05:59:04.019Z,78.05
2024-02-02T06:01:30.516Z,78.00
2024-02-02T06:03:58.010Z,77.92
2024-02-02T06:06:24.553Z,77.97
2024-02-02T06:08:51.293Z,78.19
2024-02-02T06:11:17.878Z,77.80
2024-02-02T06:13:44.340Z,77.54
2024-02-02T06:16:11.471Z,77.64
2024-02-02T06:18:38.409Z,77.41
2024-02-02T06:21:05.177Z,77.48
2024-02-02T06:23:31.743Z,77.26
2024-02-02T06:25:58.985Z,76.99
2024-02-02T06:28:25.473Z,77.09
2024-02-02T06:30:52.001Z,76.79
2024-02-02T06:33:18.706Z,77.02
2024-02-02T06:35:45.755Z,76.77
2024-02-02T06:38:12.609Z,76.83
2024-02-02T06:40:40.162Z,76.79
2024-02-02T06:43:06.760Z,76.84
2024-02-02T06:45:33.328Z,76.74
2024-02-02T06:47:59.914Z,76.85
2024-02-02T06:50:26.917Z,76.69
2024-02-02T06:52:53.855Z,76.80
2024-02-02T06:55:20.386Z,77.00
2024-02-02T06:57:47.368Z,77.02
2024-02-02T07:00:16.352Z,76.87
2024-02-02T07:02:44.418Z,76.94
2024-02-02T07:05:14.076Z,76.93
2024-02-02T07:07:41.981Z,76.87
2024-02-02T07:10:17.968Z,76.81
2024-02-02T07:13:01.223Z,76.78
2024-02-02T07:15:44.723Z,76.76
2024-02-02T07:18:35.103Z,76.46
2024-02-02T07:21:05.840Z,76.63
2024-02-02T07:23:37.220Z,76.80
2024-02-02T07:26:13.543Z,76.73
2024-02-02T07:28:40.368Z,76.80
2024-02-02T07:31:09.601Z,76.90
2024-02-02T07:33:44.778Z,76.84
2024-02-02T07:36:32.428Z,76.43
2024-02-02T07:38:59.819Z,78.04
2024-02-02T07:41:30.359Z,77.29
2024-02-02T07:44:00.933Z,77.48
2024-02-02T07:46:28.287Z,77.55
2024-02-02T07:48:55.666Z,77.56
2024-02-02T07:51:24.132Z,77.70
2024-02-02T07:53:51.605Z,77.66
2024-02-02T07:56:19.929Z,77.43
2024-02-02T07:58:46.445Z,77.52
2024-02-02T08:01:13.241Z,77.75
2024-02-02T08:03:40.049Z,77.37
2024-02-02T08:06:07.509Z,77.47
2024-02-02T08:08:34.721Z,77.27
2024-02-02T08:11:01.475Z,77.63
2024-02-02T08:13:28.832Z,77.58
2024-02-02T08:15:56.264Z,77.54
2024-02-02T08:18:23.317Z,77.30
2024-02-02T08:20:49.978Z,77.40
2024-02-02T08:23:16.725Z,77.37
2024-02-02T08:25:43.437Z,77.07
2024-02-02T08:28:10.299Z,76.27
2024-02-02T08:30:37.018Z,76.48
2024-02-02T08:33:04.254Z,76.52
2024-02-02T08:35:31.258Z,76.06
2024-02-02T08:38:02.660Z,75.51
2024-02-02T08:40:35.425Z,75.38
2024-02-02T08:43:03.148Z,75.32
2024-02-02T08:46:06.399Z,75.25
2024-02-02T08:48:40.632Z,75.86
2024-02-02T08:51:22.741Z,75.33
2024-02-02T08:53:50.340Z,75.37
2024-02-02T08:56:16.881Z,74.41
2024-02-02T08:58:43.754Z,74.24
2024-02-02T09:01:35.879Z,74.14
2024-02-02T09:04:03.858Z,72.93
2024-02-02T09:06:43.106Z,73.50
2024-02-02T09:09:13.356Z,73.31
2024-02-02T09:11:40.150Z,72.81
2024-02-02T09:14:19.596Z,72.13
2024-02-02T09:16:52.442Z,71.96
2024-02-02T09:19:28.400Z,72.25
2024-02-02T09:21:58.140Z,72.28
2024-02-02T09:24:43.343Z,71.39
2024-02-02T09:27:15.311Z,71.36
2024-02-02T09:29:49.653Z,70.62
2024-02-02T09:32:17.050Z,70.95
2024-02-02T09:34:44.518Z,70.32
2024-02-02T09:37:20.432Z,71.00
2024-02-02T09:39:53.639Z,70.57
2024-02-02T09:42:23.112Z,70.93
2024-02-02T09:45:17.916Z,70.77
2024-02-02T09:48:08.001Z,70.48
2024-02-02T09:51:17.775Z,69.84
2024-02-02T09:54:01.934Z,69.45
2024-02-02T09:56:41.261Z,69.51
2024-02-02T09:59:55.618Z,69.61
2024-02-02T10:02:44.361Z,69.18
2024-02-02T10:05:23.990Z,68.87
2024-02-02T10:08:05.792Z,65.93
2024-02-02T10:10:39.762Z,64.81
2024-02-02T10:13:12.181Z,58.29
2024-02-02T10:15:51.083Z,49.16
2024-02-02T10:18:43.530Z,42.51
2024-02-02T10:21:26.888Z,37.03
2024-02-02T10:24:12.201Z,36.78
2024-02-02T10:27:17.559Z,31.56
2024-02-02T10:29:56.266Z,29.63
2024-02-02T10:33:04.683Z,29.77
2024-02-02T10:36:09.458Z,32.94
2024-02-02T10:38:48.229Z,29.61
2024-02-02T10:41:26.904Z,27.34
2024-02-02T10:44:22.937Z,26.30
2024-02-02T10:46:55.434Z,25.93
2024-02-02T10:49:42.086Z,25.63
2024-02-02T10:52:27.929Z,25.52
2024-02-02T10:55:31.612Z,27.00
2024-02-02T10:58:08.561Z,26.80
2024-02-02T11:00:53.838Z,26.71
2024-02-02T11:03:40.387Z,27.20
2024-02-02T11:06:38.096Z,26.74
2024-02-02T11:09:50.563Z,27.19
2024-02-02T11:12:28.057Z,27.12
2024-02-02T11:15:10.226Z,26.44
2024-02-02T11:17:51.427Z,26.27
2024-02-02T11:20:36.101Z,25.54
2024-02-02T11:23:25.652Z,25.73
2024-02-02T11:26:02.282Z,24.70
2024-02-02T11:29:04.208Z,24.47
2024-02-02T11:31:42.697Z,24.96
2024-02-02T11:34:35.744Z,23.08
2024-02-02T11:37:29.286Z,23.09
2024-02-02T11:40:07.601Z,24.96
2024-02-02T11:42:37.166Z,26.48
2024-02-02T11:45:05.246Z,27.82
2024-02-02T11:47:38.816Z,28.14
2024-02-02T11:50:07.694Z,29.50
2024-02-02T11:52:48.633Z,30.08
2024-02-02T11:55:37.808Z,31.15
2024-02-02T11:58:08.385Z,31.27
2024-02-02T12:01:09.706Z,30.93
2024-02-02T12:03:40.881Z,31.99
2024-02-02T12:06:17.224Z,32.21
2024-02-02T12:08:59.592Z,32.27
2024-02-02T12:11:43.890Z,33.21
2024-02-02T12:14:30.205Z,34.33
2024-02-02T12:16:56.818Z,34.59
2024-02-02T12:19:23.708Z,34.52
2024-02-02T12:21:50.435Z,34.06
2024-02-02T12:24:18.317Z,34.64
2024-02-02T12:26:48.346Z,34.55
2024-02-02T12:29:19.477Z,35.15
2024-02-02T12:31:46.077Z,34.89
2024-02-02T12:34:14.085Z,35.10
2024-02-02T12:36:40.901Z,34.78
2024-02-02T12:39:08.233Z,34.23
2024-02-02T12:41:35.862Z,34.38
2024-02-02T12:44:03.207Z,34.55
2024-02-02T12:46:29.893Z,34.73
2024-02-02T12:48:57.162Z,34.54
2024-02-02T12:51:24.595Z,34.53
2024-02-02T12:53:51.467Z,34.60
2024-02-02T12:56:19.153Z,34.50
2024-02-02T12:58:46.064Z,35.63
2024-02-02T13:01:13.005Z,36.11
2024-02-02T13:03:44.379Z,37.03
2024-02-02T13:06:12.753Z,37.88
2024-02-02T13:08:39.561Z,37.76
2024-02-02T13:11:10.022Z,37.97
2024-02-02T13:13:38.116Z,37.65
2024-02-02T13:16:07.178Z,38.60
2024-02-02T13:18:39.923Z,38.37
2024-02-02T13:21:30.037Z,38.83
2024-02-02T13:23:57.561Z,38.88
2024-02-02T13:26:40.116Z,39.81
2024-02-02T13:29:11.268Z,39.51
2024-02-02T13:31:42.024Z,38.92
2024-02-02T13:34:14.293Z,39.14
2024-02-02T13:36:45.419Z,39.32
2024-02-02T13:39:20.185Z,38.90
2024-02-02T13:41:47.860Z,38.61
2024-02-02T13:44:18.239Z,38.55
2024-02-02T13:46:46.387Z,38.24
2024-02-02T13:49:23.839Z,39.26
2024-02-02T13:51:50.913Z,40.38
2024-02-02T13:54:19.066Z,41.59
2024-02-02T13:56:46.015Z,42.21
2024-02-02T13:59:21.917Z,43.03
2024-02-02T14:01:48.687Z,43.25
2024-02-02T14:04:28.187Z,44.22
2024-02-02T14:06:54.978Z,45.66
2024-02-02T14:09:25.658Z,46.33
2024-02-02T14:12:02.475Z,47.07
2024-02-02T14:14:29.799Z,47.27
2024-02-02T14:17:06.041Z,47.39
2024-02-02T14:19:33.496Z,47.87
2024-02-02T14:22:08.196Z,48.01
2024-02-02T14:24:46.824Z,48.70
2024-02-02T14:27:13.763Z,48.53
2024-02-02T14:29:42.469Z,48.65
2024-02-02T14:32:09.772Z,48.75
2024-02-02T14:34:36.384Z,49.04
2024-02-02T14:37:09.729Z,48.96
2024-02-02T14:39:36.610Z,49.47
2024-02-02T14:42:04.091Z,49.98
2024-02-02T14:44:30.700Z,50.37
2024-02-02T14:46:58.154Z,50.01
2024-02-02T14:49:26.986Z,50.50
2024-02-02T14:51:55.107Z,50.27
2024-02-02T14:54:22.381Z,50.80
2024-02-02T14:56:49.355Z,51.34
2024-02-02T14:59:22.008Z,52.74
2024-02-02T15:01:49.303Z,52.65
2024-02-02T15:04:17.496Z,52.43
2024-02-02T15:06:45.103Z,52.91
2024-02-02T15:09:15.562Z,52.96
2024-02-02T15:11:43.387Z,53.40
2024-02-02T15:14:10.944Z,53.61
2024-02-02T15:16:37.984Z,54.61
2024-02-02T15:19:07.330Z,54.04
2024-02-02T15:21:34.251Z,54.25
2024-02-02T15:24:01.482Z,54.39
2024-02-02T15:26:28.312Z,54.63
2024-02-02T15:28:54.870Z,55.43
2024-02-02T15:31:21.617Z,55.56
2024-02-02T15:33:48.520Z,56.19
2024-02-02T15:36:15.469Z,56.47
2024-02-02T15:38:59.891Z,56.47
2024-02-02T15:41:29.561Z,56.60
2024-02-02T15:43:56.732Z,57.69
2024-02-02T15:46:25.278Z,57.79
2024-02-02T15:48:52.717Z,58.20
2024-02-02T15:51:20.107Z,58.15
2024-02-02T15:53:47.894Z,58.07
2024-02-02T15:56:18.953Z,58.18
2024-02-02T15:58:45.714Z,58.04
2024-02-02T16:01:13.464Z,57.69
2024-02-02T16:03:41.806Z,58.17
2024-02-02T16:06:10.459Z,58.58
2024-02-02T16:08:37.709Z,58.64
2024-02-02T16:11:11.518Z,59.07
2024-02-02T16:13:37.957Z,60.17
2024-02-02T16:16:09.179Z,59.41
2024-02-02T16:18:36.634Z,59.46
2024-02-02T16:21:06.548Z,59.79
2024-02-02T16:23:33.171Z,60.86
2024-02-02T16:26:00.350Z,60.98
2024-02-02T16:28:26.916Z,61.09
2024-02-02T16:30:53.616Z,61.83
2024-02-02T16:33:21.705Z,61.49
2024-02-02T16:35:48.398Z,61.68
2024-02-02T16:38:16.117Z,61.43
2024-02-02T16:40:42.833Z,61.49
2024-02-02T16:43:09.482Z,62.00
2024-02-02T16:45:36.150Z,62.31
2024-02-02T16:48:03.269Z,61.38
2024-02-02T16:50:29.825Z,61.87
2024-02-02T16:52:56.320Z,61.44
2024-02-02T16:55:22.820Z,61.34
2024-02-02T16:57:49.360Z,61.90
2024-02-02T17:00:16.264Z,61.59
2024-02-02T17:02:42.816Z,61.26
2024-02-02T17:05:09.434Z,61.79
2024-02-02T17:07:41.418Z,61.97
2024-02-02T17:10:08.872Z,61.97
2024-02-02T17:12:38.997Z,61.72
2024-02-02T17:15:14.042Z,61.98
2024-02-02T17:17:41.787Z,62.03
2024-02-02T17:20:11.466Z,61.56
2024-02-02T17:22:43.885Z,61.72
2024-02-02T17:25:11.771Z,62.43
2024-02-02T17:27:38.988Z,62.66
2024-02-02T17:30:06.714Z,62.42
2024-02-02T17:32:39.297Z,63.03
2024-02-02T17:35:07.587Z,63.63
2024-02-02T17:37:34.468Z,62.69
2024-02-02T17:40:01.613Z,62.88
2024-02-02T17:42:28.189Z,63.64
2024-02-02T17:44:54.664Z,63.57
2024-02-02T17:47:22.579Z,63.99
2024-02-02T17:49:52.126Z,64.33
2024-02-02T17:52:22.258Z,64.30
2024-02-02T17:54:48.831Z,64.01
2024-02-02T17:57:15.408Z,63.67
2024-02-02T17:59:42.458Z,64.17
2024-02-02T18:02:10.351Z,63.87
2024-02-02T18:04:37.108Z,64.21
2024-02-02T18:07:04.247Z,64.59
2024-02-02T18:09:30.982Z,64.41
2024-02-02T18:11:57.609Z,64.49
2024-02-02T18:14:27.813Z,64.81
2024-02-02T18:16:55.415Z,65.09
2024-02-02T18:19:22.002Z,65.17
2024-02-02T18:21:48.752Z,65.55
2024-02-02T18:24:15.484Z,65.31
2024-02-02T18:26:41.999Z,65.21
2024-02-02T18:29:08.494Z,65.27
2024-02-02T18:31:34.972Z,65.54
2024-02-02T18:34:02.484Z,65.29
2024-02-02T18:36:29.208Z,65.53
2024-02-02T18:38:55.682Z,65.53
2024-02-02T18:41:28.486Z,65.76
2024-02-02T18:43:55.544Z,65.86
2024-02-02T18:46:29.496Z,65.93
2024-02-02T18:48:57.283Z,66.09
2024-02-02T18:51:24.782Z,66.08
2024-02-02T18:53:51.480Z,65.98
2024-02-02T18:56:18.149Z,66.75
2024-02-02T18:58:46.815Z,66.20
2024-02-02T19:01:25.621Z,66.38
2024-02-02T19:03:53.021Z,66.88
2024-02-02T19:06:19.807Z,67.04
2024-02-02T19:08:46.465Z,66.66
2024-02-02T19:11:14.286Z,67.12
2024-02-02T19:13:40.834Z,66.85
2024-02-02T19:16:24.474Z,66.82
2024-02-02T19:18:53.237Z,67.18
2024-02-02T19:21:30.245Z,67.30
2024-02-02T19:23:58.245Z,67.26
2024-02-02T19:26:24.876Z,67.11
2024-02-02T19:28:52.855Z,67.01
2024-02-02T19:31:20.044Z,67.18
2024-02-02T19:33:46.898Z,67.27
2024-02-02T19:36:27.988Z,67.39
2024-02-02T19:38:56.186Z,67.44
2024-02-02T19:41:29.333Z,67.71
2024-02-02T19:43:56.446Z,67.68
2024-02-02T19:46:25.979Z,67.55
2024-02-02T19:48:54.451Z,68.08
2024-02-02T19:51:22.611Z,68.32
2024-02-02T19:53:49.675Z,67.78
2024-02-02T19:56:16.502Z,67.53
2024-02-02T19:58:50.002Z,67.63
2024-02-02T20:01:22.809Z,67.30
2024-02-02T20:03:51.904Z,67.17
2024-02-02T20:06:20.353Z,67.06
2024-02-02T20:08:48.845Z,66.70
2024-02-02T20:11:20.953Z,66.98
2024-02-02T20:13:48.604Z,67.06
2024-02-02T20:16:17.571Z,67.30
2024-02-02T20:18:44.873Z,66.86
2024-02-02T20:21:15.315Z,66.76
2024-02-02T20:23:42.266Z,67.12
2024-02-02T20:26:09.583Z,67.33
2024-02-02T20:28:36.428Z,67.48
2024-02-02T20:31:04.261Z,67.25
2024-02-02T20:33:30.951Z,67.83
2024-02-02T20:35:57.788Z,67.48
2024-02-02T20:38:24.429Z,67.17
2024-02-02T20:40:51.073Z,66.66
2024-02-02T20:43:17.566Z,66.85
2024-02-02T20:45:44.290Z,66.68
2024-02-02T20:48:11.206Z,66.54
2024-02-02T20:50:38.633Z,66.52
2024-02-02T20:53:05.310Z,66.25
2024-02-02T20:55:31.821Z,66.16
2024-02-02T20:58:02.236Z,66.11
2024-02-02T21:00:29.657Z,65.91
2024-02-02T21:02:56.539Z,65.90
2024-02-02T21:05:25.258Z,65.74
2024-02-02T21:07:53.157Z,65.95
2024-02-02T21:10:20.481Z,66.10
2024-02-02T21:12:47.543Z,66.03
2024-02-02T21:15:15.514Z,66.11
2024-02-02T21:17:46.248Z,65.94
2024-02-02T21:20:14.002Z,65.73
2024-02-02T21:22:40.738Z,65.59
2024-02-02T21:25:08.887Z,65.08
2024-02-02T21:27:35.619Z,65.23
2024-02-02T21:30:02.190Z,65.42
2024-02-02T21:32:28.668Z,65.25
2024-02-02T21:34:55.247Z,64.70
2024-02-02T21:37:21.939Z,64.57
2024-02-02T21:39:48.575Z,64.39
2024-02-02T21:42:15.111Z,64.26
2024-02-02T21:44:41.683Z,63.60
2024-02-02T21:47:08.155Z,62.77
2024-02-02T21:49:34.754Z,62.46
2024-02-02T21:52:01.334Z,62.13
2024-02-02T21:54:29.082Z,61.63
2024-02-02T21:56:55.768Z,61.22
2024-02-02T21:59:22.250Z,61.29
2024-02-02T22:01:48.751Z,60.80
2024-02-02T22:04:17.633Z,60.94
2024-02-02T22:06:44.304Z,60.99
2024-02-02T22:09:10.837Z,60.90
2024-02-02T22:11:37.418Z,61.16
2024-02-02T22:14:04.080Z,61.33
2024-02-02T22:16:33.021Z,61.25
2024-02-02T22:19:02.516Z,61.22
2024-02-02T22:21:30.109Z,61.49
2024-02-02T22:23:56.736Z,61.67
2024-02-02T22:26:23.201Z,61.43
2024-02-02T22:28:50.118Z,61.83
2024-02-02T22:31:23.367Z,61.76
2024-02-02T22:33:50.573Z,62.15
2024-02-02T22:36:21.997Z,62.07
2024-02-02T22:38:51.248Z,62.51
2024-02-02T22:41:32.171Z,62.57
2024-02-02T22:44:00.845Z,62.68
2024-02-02T22:46:31.102Z,63.06
2024-02-02T22:48:58.213Z,63.30
2024-02-02T22:51:24.966Z,63.56
2024-02-02T22:53:51.789Z,63.77
2024-02-02T22:56:18.367Z,64.04
2024-02-02T22:58:44.819Z,64.41
2024-02-02T23:01:12.001Z,64.73
2024-02-02T23:03:38.829Z,64.69
2024-02-02T23:06:07.115Z,65.12
2024-02-02T23:08:33.756Z,65.35
2024-02-02T23:11:00.299Z,65.53
2024-02-02T23:13:26.886Z,66.12
2024-02-02T23:15:54.899Z,66.22
2024-02-02T23:18:22.838Z,66.44
2024-02-02T23:20:50.029Z,66.54
2024-02-02T23:23:20.155Z,66.64
2024-02-02T23:25:47.032Z,67.05
2024-02-02T23:28:13.959Z,66.90
2024-02-02T23:30:41.086Z,67.12
2024-02-02T23:33:07.981Z,67.29
2024-02-02T23:35:34.711Z,67.35
2024-02-02T23:38:01.241Z,67.67
2024-02-02T23:40:28.131Z,67.97
2024-02-02T23:42:54.642Z,68.21
2024-02-02T23:45:21.248Z,68.63
2024-02-02T23:47:47.915Z,68.54
2024-02-02T23:50:14.688Z,68.61
2024-02-02T23:52:41.332Z,68.84
2024-02-02T23:55:08.464Z,68.89
2024-02-02T23:57:35.289Z,69.10
